Time;durP1;ratioP1;P1;durP2;ratioP2;P2;SDS_P1;SDS_P2;PMS_P1;PMS_P2;Temp;Humidity;BMP_temperature;BMP_pressure;BME280_temperature;BME280_humidity;BME280_pressure;Samples;Min_cycle;Max_cycle;Signal;HPM_P1;HPM_P2
2022/01/17 00:00:15;;;;;;;31.73;12.80;;;;;;;3.29;78.92;103127.00;4971853;28;20054;-77
2022/01/17 00:02:47;;;;;;;31.27;12.38;;;;;;;3.31;78.93;103128.41;4973920;28;20038;-78
2022/01/17 00:05:14;;;;;;;33.15;13.45;;;;;;;3.30;78.87;103120.44;4976834;28;20035;-78
2022/01/17 00:07:40;;;;;;;28.25;13.77;;;;;;;3.31;78.94;103127.59;4975605;28;20078;-77
2022/01/17 00:10:08;;;;;;;27.77;12.02;;;;;;;3.31;78.50;103135.81;4972372;28;20480;-77
2022/01/17 00:12:38;;;;;;;33.88;14.65;;;;;;;3.28;78.66;103133.56;4973501;28;20042;-78
2022/01/17 00:15:13;;;;;;;30.00;13.50;;;;;;;3.21;78.74;103135.56;4975746;28;20126;-78
2022/01/17 00:17:43;;;;;;;26.90;13.70;;;;;;;3.16;78.98;103141.75;4975053;28;20039;-78
2022/01/17 00:20:14;;;;;;;30.13;16.10;;;;;;;3.16;79.10;103139.00;4975979;28;20731;-78
2022/01/17 00:22:40;;;;;;;30.58;15.38;;;;;;;3.16;78.78;103135.44;4974368;28;20121;-77
2022/01/17 00:25:08;;;;;;;31.63;15.88;;;;;;;3.09;78.83;103135.56;4976768;28;20030;-78
2022/01/17 00:27:35;;;;;;;30.70;16.02;;;;;;;2.99;79.41;103149.00;4974736;28;20042;-77
2022/01/17 00:30:04;;;;;;;31.38;15.43;;;;;;;2.99;79.74;103158.03;4975656;28;20077;-78
2022/01/17 00:32:31;;;;;;;31.73;13.10;;;;;;;3.03;79.20;103164.72;4973689;28;20538;-78
2022/01/17 00:34:58;;;;;;;29.63;12.27;;;;;;;3.03;79.49;103151.03;4965146;28;20054;-78
2022/01/17 00:37:25;;;;;;;22.88;12.65;;;;;;;2.95;79.71;103137.69;4975299;28;20089;-78
2022/01/17 00:39:52;;;;;;;25.25;12.15;;;;;;;2.91;79.66;103136.47;4974747;28;20050;-78
2022/01/17 00:42:19;;;;;;;23.67;10.93;;;;;;;2.93;80.10;103148.06;4973980;28;20034;-77
2022/01/17 00:44:48;;;;;;;25.73;11.50;;;;;;;2.99;79.62;103158.03;4955314;28;20061;-78
2022/01/17 00:47:15;;;;;;;30.35;12.75;;;;;;;2.96;79.84;103157.69;4974447;28;20066;-78
2022/01/17 00:49:41;;;;;;;29.92;11.90;;;;;;;2.91;79.64;103146.63;4975657;28;20126;-78
2022/01/17 00:52:08;;;;;;;22.67;10.63;;;;;;;2.87;79.73;103151.72;4973868;28;20101;-78
2022/01/17 00:54:36;;;;;;;23.65;10.48;;;;;;;2.89;79.95;103157.78;4976025;28;20101;-77
2022/01/17 00:57:03;;;;;;;21.10;9.93;;;;;;;2.91;79.95;103172.06;4975902;28;20042;-78
2022/01/17 00:59:30;;;;;;;21.48;10.15;;;;;;;2.91;79.35;103163.03;4974751;28;20073;-78
2022/01/17 01:01:58;;;;;;;21.88;10.43;;;;;;;2.90;79.55;103159.47;4972259;28;20533;-77
2022/01/17 01:04:25;;;;;;;26.52;10.50;;;;;;;2.87;79.82;103159.94;4971488;28;20054;-78
2022/01/17 01:06:51;;;;;;;21.67;9.98;;;;;;;2.83;80.12;103153.25;4973943;28;20052;-78
2022/01/17 01:09:18;;;;;;;24.15;9.70;;;;;;;2.79;80.21;103146.59;4974566;28;20060;-77
2022/01/17 01:11:45;;;;;;;25.80;11.95;;;;;;;2.79;80.21;103149.31;4974405;28;20482;-77
2022/01/17 01:14:12;;;;;;;22.95;10.02;;;;;;;2.80;80.41;103142.78;4957650;28;20137;-77
2022/01/17 01:16:38;;;;;;;21.60;9.75;;;;;;;2.78;80.21;103144.91;4972382;28;20141;-77
2022/01/17 01:22:01;;;;;;;18.88;7.90;;;;;;;2.78;80.63;103142.16;4973518;28;20041;-78
2022/01/17 01:29:49;;;;;;;21.35;8.20;;;;;;;2.81;80.37;103132.66;4974000;28;20061;-78
2022/01/17 01:32:20;;;;;;;22.67;7.55;;;;;;;2.79;80.44;103130.19;4974538;28;20038;-78
2022/01/17 01:34:52;;;;;;;21.95;9.07;;;;;;;2.77;80.54;103135.06;4943669;28;20047;-77
2022/01/17 01:37:18;;;;;;;24.42;11.73;;;;;;;2.82;80.53;103154.31;4983163;28;20043;-77
2022/01/17 01:39:50;;;;;;;23.35;9.65;;;;;;;2.84;80.23;103154.91;4967190;28;20158;-78
2022/01/17 01:42:19;;;;;;;24.98;11.43;;;;;;;2.82;80.34;103157.06;4952139;28;20231;-77
2022/01/17 01:44:50;;;;;;;25.58;13.23;;;;;;;2.77;80.36;103158.84;4967420;28;20041;-78
2022/01/17 01:47:21;;;;;;;25.77;12.65;;;;;;;2.73;80.40;103158.47;4967873;28;20041;-77
2022/01/17 01:49:47;;;;;;;26.83;12.07;;;;;;;2.75;80.47;103177.38;4949812;28;20038;-78
2022/01/17 01:52:14;;;;;;;23.05;11.02;;;;;;;2.75;80.42;103177.38;4968972;28;20047;-77
2022/01/17 01:54:41;;;;;;;23.15;9.77;;;;;;;2.73;80.32;103163.09;4967733;28;20501;-77
2022/01/17 01:57:09;;;;;;;24.92;11.48;;;;;;;2.67;80.18;103164.88;4950916;28;20162;-77
2022/01/17 01:59:37;;;;;;;28.40;12.07;;;;;;;2.60;80.39;103160.56;4965731;28;20078;-77
2022/01/17 02:02:06;;;;;;;35.00;11.52;;;;;;;2.57;80.80;103159.13;4943913;28;20043;-77
2022/01/17 02:04:34;;;;;;;24.20;9.77;;;;;;;2.61;80.45;103165.81;4966945;28;20231;-78
2022/01/17 02:07:03;;;;;;;26.63;11.40;;;;;;;2.57;80.55;103164.59;4967459;28;20039;-78
2022/01/17 02:09:31;;;;;;;32.72;12.38;;;;;;;2.58;80.76;103171.75;4949879;28;20589;-78
2022/01/17 02:11:58;;;;;;;23.95;11.77;;;;;;;2.60;80.46;103180.53;4967880;28;20042;-77
2022/01/17 02:14:24;;;;;;;27.20;12.00;;;;;;;2.56;80.68;103176.63;4959689;28;20710;-77
2022/01/17 02:16:51;;;;;;;25.20;9.73;;;;;;;2.54;80.84;103180.66;4967907;28;20201;-77
2022/01/17 02:19:21;;;;;;;23.30;9.77;;;;;;;2.52;80.71;103171.81;4967024;28;20045;-77
2022/01/17 02:21:49;;;;;;;22.58;10.43;;;;;;;2.49;80.79;103156.72;4949992;28;20043;-77
2022/01/17 02:24:21;;;;;;;17.55;9.27;;;;;;;2.46;81.01;103144.34;4967274;28;20074;-77
2022/01/17 02:26:51;;;;;;;21.02;9.25;;;;;;;2.49;81.09;103153.97;4967650;28;20049;-77
2022/01/17 02:29:19;;;;;;;27.25;11.05;;;;;;;2.52;80.73;103161.72;4966828;28;20630;-78
2022/01/17 02:31:47;;;;;;;23.55;10.13;;;;;;;2.48;81.25;103160.53;4961701;28;20042;-76
2022/01/17 02:34:14;;;;;;;24.85;10.32;;;;;;;2.50;81.02;103158.41;4984064;28;20149;-77
2022/01/17 02:36:41;;;;;;;18.77;8.43;;;;;;;2.51;81.13;103154.59;4988327;28;20042;-77
2022/01/17 02:39:08;;;;;;;20.73;9.43;;;;;;;2.52;81.26;103172.66;4988382;28;20517;-77
2022/01/17 02:41:39;;;;;;;19.27;8.52;;;;;;;2.55;81.26;103188.59;4970414;28;20132;-77
2022/01/17 02:44:07;;;;;;;25.48;8.07;;;;;;;2.59;81.04;103188.97;4970579;28;20044;-78
2022/01/17 02:46:34;;;;;;;27.55;10.00;;;;;;;2.50;80.85;103174.81;4986860;28;20092;-77
2022/01/17 02:49:04;;;;;;;24.95;8.50;;;;;;;2.47;81.44;103181.56;4969920;28;20378;-77
2022/01/17 02:51:33;;;;;;;29.02;8.80;;;;;;;2.51;81.34;103181.09;4987999;28;20046;-77
2022/01/17 02:54:00;;;;;;;19.13;8.45;;;;;;;2.51;81.39;103176.47;4987540;28;20038;-77
2022/01/17 02:56:28;;;;;;;18.80;8.18;;;;;;;2.50;81.01;103190.38;4987295;28;20374;-77
2022/01/17 02:58:55;;;;;;;26.83;7.53;;;;;;;2.50;81.18;103191.22;4987289;28;20509;-77
2022/01/17 03:01:26;;;;;;;20.80;9.85;;;;;;;2.48;81.35;103182.41;4967688;28;20060;-77
2022/01/17 03:07:46;;;;;;;17.83;8.45;;;;;;;2.46;81.20;103176.34;4986958;28;20030;-77
2022/01/17 03:13:09;;;;;;;14.75;6.65;;;;;;;2.42;81.53;103180.59;4988928;28;20043;-76
2022/01/17 03:15:37;;;;;;;14.43;6.13;;;;;;;2.44;81.57;103181.19;4987933;28;20034;-76
2022/01/17 03:18:03;;;;;;;11.25;6.03;;;;;;;2.45;81.01;103177.41;4968464;28;20129;-77
2022/01/17 03:20:31;;;;;;;17.27;7.53;;;;;;;2.41;81.41;103176.19;4987733;28;20077;-77
2022/01/17 03:22:58;;;;;;;15.45;6.70;;;;;;;2.40;81.59;103178.09;4987133;28;20466;-77
2022/01/17 03:25:24;;;;;;;18.70;6.68;;;;;;;2.44;81.58;103181.19;4987753;28;20073;-76
2022/01/17 03:27:51;;;;;;;15.15;5.88;;;;;;;2.40;81.24;103180.84;4987819;28;20034;-77
2022/01/17 03:30:18;;;;;;;14.07;5.70;;;;;;;2.36;81.77;103173.31;4986737;28;20108;-77
2022/01/17 03:32:45;;;;;;;14.90;5.68;;;;;;;2.37;81.69;103180.47;4966374;28;20068;-76
2022/01/17 03:35:13;;;;;;;21.75;8.23;;;;;;;2.36;81.63;103182.34;4984599;28;20394;-77
2022/01/17 03:37:40;;;;;;;11.25;5.50;;;;;;;2.38;82.00;103182.13;4984353;28;20074;-77
2022/01/17 03:40:08;;;;;;;18.73;5.82;;;;;;;2.37;81.92;103186.75;4966249;28;20046;-77
2022/01/17 03:42:36;;;;;;;14.02;6.15;;;;;;;2.37;81.63;103186.75;4985617;28;20169;-77
2022/01/17 03:45:07;;;;;;;14.18;5.47;;;;;;;2.35;81.67;103180.69;4966783;28;20048;-77
2022/01/17 03:47:40;;;;;;;16.33;5.95;;;;;;;2.34;81.79;103175.44;4965591;28;20042;-76
2022/01/17 03:50:12;;;;;;;20.38;5.95;;;;;;;2.31;81.94;103181.38;4982850;28;20057;-77
2022/01/17 03:52:40;;;;;;;16.52;6.90;;;;;;;2.33;81.84;103171.06;4985990;28;20124;-77
2022/01/17 03:55:09;;;;;;;13.75;5.57;;;;;;;2.33;81.99;103168.34;4966045;28;20458;-76
2022/01/17 03:57:36;;;;;;;14.65;7.13;;;;;;;2.31;81.69;103170.44;4984218;28;20057;-76
2022/01/17 04:00:04;;;;;;;16.27;5.65;;;;;;;2.31;81.88;103175.91;4984267;28;20038;-77
2022/01/17 04:02:31;;;;;;;19.35;5.72;;;;;;;2.31;82.13;103175.91;4984874;28;20046;-77
2022/01/17 04:04:58;;;;;;;12.30;6.15;;;;;;;2.29;82.03;103184.34;4984991;28;20050;-76
2022/01/17 04:07:24;;;;;;;13.88;5.25;;;;;;;2.27;82.11;103174.72;4966242;28;20116;-76
2022/01/17 04:09:51;;;;;;;11.80;5.53;;;;;;;2.25;82.10;103176.84;4982725;28;20038;-76
2022/01/17 04:12:18;;;;;;;17.10;5.47;;;;;;;2.27;81.99;103171.97;4985199;28;20080;-76
2022/01/17 04:14:45;;;;;;;12.68;5.30;;;;;;;2.27;81.97;103153.69;4983954;28;20068;-76
2022/01/17 04:17:12;;;;;;;11.85;4.78;;;;;;;2.28;82.31;103168.16;4965137;28;20129;-76
2022/01/17 04:19:42;;;;;;;15.60;5.25;;;;;;;2.30;81.99;103171.53;4967571;28;20128;-76
2022/01/17 04:22:10;;;;;;;10.88;5.50;;;;;;;2.31;81.90;103173.16;4966291;28;20045;-77
2022/01/17 04:24:37;;;;;;;15.55;4.68;;;;;;;2.26;82.16;103162.09;4984452;28;20050;-76
2022/01/17 04:27:04;;;;;;;11.15;4.15;;;;;;;2.25;82.09;103165.91;4984345;28;20038;-76
2022/01/17 04:29:30;;;;;;;12.60;4.13;;;;;;;2.24;82.53;103186.09;4983823;28;20129;-76
2022/01/17 04:31:57;;;;;;;21.08;5.90;;;;;;;2.24;82.58;103166.97;4982885;28;20117;-76
2022/01/17 04:34:28;;;;;;;11.88;4.70;;;;;;;2.22;82.17;103161.75;4980946;28;20050;-76
2022/01/17 04:36:55;;;;;;;14.70;4.15;;;;;;;2.21;82.30;103159.22;4972522;28;20050;-76
2022/01/17 04:39:22;;;;;;;12.48;5.30;;;;;;;2.20;82.16;103171.22;4956744;28;20042;-76
2022/01/17 04:41:48;;;;;;;18.00;5.70;;;;;;;2.22;82.43;103180.03;4982747;28;20108;-76
2022/01/17 04:47:00;;;;;;;23.50;6.55;;;;;;;2.19;82.51;103191.44;4972492;28;20526;-76
2022/01/17 04:49:27;;;;;;;12.60;5.00;;;;;;;2.17;82.53;103172.50;4975342;28;20066;-76
2022/01/17 04:51:54;;;;;;;16.00;4.57;;;;;;;2.11;82.09;103169.88;4975883;28;22365;-76
2022/01/17 04:56:48;;;;;;;14.93;4.70;;;;;;;2.09;82.44;103181.03;4974098;28;20046;-76
2022/01/17 04:59:15;;;;;;;12.10;4.70;;;;;;;2.11;82.58;103191.72;4956750;28;20054;-77
2022/01/17 05:01:42;;;;;;;9.32;3.95;;;;;;;2.06;82.23;103167.84;4974090;28;20510;-76
2022/01/17 05:04:08;;;;;;;12.02;4.95;;;;;;;2.05;82.43;103181.72;4974723;28;20057;-76
2022/01/17 05:06:35;;;;;;;17.27;6.75;;;;;;;2.07;82.37;103185.03;4974980;28;20038;-76
2022/01/17 05:09:05;;;;;;;10.40;4.32;;;;;;;2.05;82.28;103178.97;4993565;28;20378;-76
2022/01/17 05:11:33;;;;;;;13.52;5.82;;;;;;;2.06;82.22;103169.72;4978680;28;20054;-76
2022/01/17 05:14:01;;;;;;;12.82;5.13;;;;;;;2.00;82.32;103157.81;4984782;28;20616;-76
2022/01/17 05:16:34;;;;;;;14.32;4.80;;;;;;;2.00;82.52;103163.28;4974680;28;20035;-76
2022/01/17 05:21:47;;;;;;;11.00;5.72;;;;;;;2.01;82.39;103164.97;4975265;28;20054;-76
2022/01/17 05:24:14;;;;;;;13.93;5.03;;;;;;;1.96;82.29;103166.72;4984792;28;20152;-76
2022/01/17 05:26:42;;;;;;;16.63;4.93;;;;;;;1.94;82.78;103171.53;4992711;28;20129;-76
2022/01/17 05:29:09;;;;;;;17.45;5.35;;;;;;;1.94;82.41;103171.53;4978576;28;20038;-76
2022/01/17 05:31:36;;;;;;;12.55;5.13;;;;;;;1.91;82.49;103174.75;4975627;28;20205;-76
2022/01/17 05:34:02;;;;;;;12.80;5.05;;;;;;;1.90;82.39;103184.00;4978822;28;20069;-76
2022/01/17 05:36:29;;;;;;;17.42;5.45;;;;;;;1.89;83.05;103191.38;4959666;28;20177;-77
2022/01/17 05:38:56;;;;;;;14.00;5.43;;;;;;;1.87;82.75;103184.47;4960668;28;20461;-76
2022/01/17 05:41:23;;;;;;;19.23;5.60;;;;;;;1.88;82.80;103183.41;4980008;28;20035;-76
2022/01/17 05:43:50;;;;;;;12.15;5.25;;;;;;;1.89;82.53;103187.78;4978643;28;20050;-76
2022/01/17 05:46:16;;;;;;;15.90;4.80;;;;;;;1.85;82.42;103177.31;4975245;28;20093;-76
2022/01/17 05:48:43;;;;;;;18.13;5.15;;;;;;;1.85;82.92;103188.25;4979806;28;20053;-76
2022/01/17 05:51:10;;;;;;;14.65;5.20;;;;;;;1.84;82.62;103186.59;4978987;28;20038;-76
2022/01/17 05:53:37;;;;;;;11.27;4.38;;;;;;;1.81;82.93;103187.03;4961657;28;20057;-76
2022/01/17 05:56:04;;;;;;;15.40;5.18;;;;;;;1.77;82.77;103196.72;4975706;28;20537;-76
2022/01/17 05:58:31;;;;;;;13.95;6.03;;;;;;;1.76;82.94;103186.91;4960677;28;20386;-76
2022/01/17 06:00:58;;;;;;;18.27;6.90;;;;;;;1.79;82.77;103189.19;4977270;28;20055;-76
2022/01/17 06:03:25;;;;;;;14.35;6.32;;;;;;;1.79;82.84;103186.44;4978156;28;20109;-76
2022/01/17 06:05:53;;;;;;;12.10;5.55;;;;;;;1.76;82.42;103186.91;4977921;28;20042;-76
2022/01/17 06:08:20;;;;;;;15.05;6.07;;;;;;;1.74;82.53;103196.38;4975582;28;20047;-76
2022/01/17 06:10:46;;;;;;;12.93;7.35;;;;;;;1.69;83.14;103199.78;4978046;28;20491;-76
2022/01/17 06:13:13;;;;;;;13.95;6.22;;;;;;;1.69;83.06;103209.88;4962253;28;20038;-76
2022/01/17 06:15:40;;;;;;;25.73;7.80;;;;;;;1.68;82.85;103217.22;4975005;28;20397;-76
2022/01/17 06:18:07;;;;;;;13.80;5.63;;;;;;;1.68;83.05;103228.16;4960013;28;20137;-76
2022/01/17 06:20:33;;;;;;;14.32;6.68;;;;;;;1.71;83.33;103218.66;4978049;28;20490;-76
2022/01/17 06:23:00;;;;;;;20.38;7.25;;;;;;;1.68;83.00;103203.56;4945192;28;20050;-76
2022/01/17 06:25:27;;;;;;;13.93;6.60;;;;;;;1.65;82.97;103209.47;4977758;28;20074;-76
2022/01/17 06:27:54;;;;;;;21.52;6.53;;;;;;;1.66;83.12;103213.06;4960794;28;20057;-76
2022/01/17 06:30:21;;;;;;;19.42;7.35;;;;;;;1.63;83.40;103203.41;4976311;28;20478;-76
2022/01/17 06:32:48;;;;;;;23.88;7.55;;;;;;;1.63;83.27;103200.69;4990778;28;20038;-76
2022/01/17 06:35:15;;;;;;;16.23;7.00;;;;;;;1.67;83.44;103218.28;4976851;28;20046;-76
2022/01/17 06:37:44;;;;;;;19.50;7.47;;;;;;;1.70;83.12;103230.63;4978419;28;20486;-76
2022/01/17 06:40:12;;;;;;;18.60;7.60;;;;;;;1.66;83.22;103233.00;4982456;28;20401;-76
2022/01/17 06:42:39;;;;;;;17.92;6.97;;;;;;;1.64;83.58;103250.69;4977511;28;20047;-76
2022/01/17 06:45:06;;;;;;;17.65;6.30;;;;;;;1.67;83.38;103255.66;4973637;28;20448;-76
2022/01/17 06:47:34;;;;;;;11.52;6.85;;;;;;;1.66;83.22;103287.63;4973665;28;20494;-76
2022/01/17 06:50:04;;;;;;;18.25;7.38;;;;;;;1.64;83.62;103299.81;4975819;28;20031;-76
2022/01/17 06:52:32;;;;;;;16.58;6.80;;;;;;;1.65;83.42;103282.38;4977491;28;20466;-76
2022/01/17 06:55:04;;;;;;;17.50;7.65;;;;;;;1.62;83.71;103267.25;4973568;28;20047;-76
2022/01/17 06:57:31;;;;;;;20.23;7.63;;;;;;;1.61;83.43;103251.97;4975728;28;20126;-76
2022/01/17 06:59:58;;;;;;;20.48;7.05;;;;;;;1.63;83.62;103252.56;4976717;28;20965;-77
2022/01/17 07:02:24;;;;;;;17.98;6.32;;;;;;;1.63;83.70;103252.56;4976929;28;20057;-76
2022/01/17 07:04:52;;;;;;;20.67;6.60;;;;;;;1.61;83.67;103238.31;4958566;28;20513;-76
2022/01/17 07:07:20;;;;;;;17.27;5.88;;;;;;;1.63;83.82;103235.34;4976609;28;20066;-76
2022/01/17 07:09:48;;;;;;;10.80;5.97;;;;;;;1.60;83.50;103250.28;4974455;28;20039;-76
2022/01/17 07:12:15;;;;;;;14.35;6.13;;;;;;;1.60;83.39;103243.97;4958260;28;20042;-76
2022/01/17 07:14:42;;;;;;;14.25;6.95;;;;;;;1.59;83.49;103229.47;4975386;28;20042;-76
2022/01/17 07:17:10;;;;;;;15.88;6.88;;;;;;;1.55;83.98;103239.19;4977113;28;20042;-77
2022/01/17 07:19:37;;;;;;;14.10;6.75;;;;;;;1.55;83.81;103246.53;4981737;28;20077;-76
2022/01/17 07:22:05;;;;;;;14.07;6.82;;;;;;;1.58;83.79;103251.56;4975967;28;20038;-77
2022/01/17 07:24:38;;;;;;;18.45;6.82;;;;;;;1.56;83.66;103259.97;4959195;28;20035;-76
2022/01/17 07:27:05;;;;;;;17.10;7.45;;;;;;;1.54;84.09;103256.63;4975934;28;20116;-77
2022/01/17 07:29:32;;;;;;;19.33;7.25;;;;;;;1.53;83.79;103224.94;4974542;28;20042;-76
2022/01/17 07:31:58;;;;;;;16.27;6.85;;;;;;;1.50;83.85;103235.47;4956215;28;20043;-76
2022/01/17 07:34:25;;;;;;;14.32;7.07;;;;;;;1.53;84.34;103252.25;4976511;28;20464;-77
2022/01/17 07:36:52;;;;;;;16.75;7.22;;;;;;;1.53;84.25;103246.78;4974665;28;20077;-77
2022/01/17 07:39:19;;;;;;;19.83;8.40;;;;;;;1.53;83.76;103235.03;4965370;28;20054;-76
2022/01/17 07:41:46;;;;;;;16.25;6.68;;;;;;;1.48;83.85;103246.63;4976143;28;20186;-76
2022/01/17 07:44:19;;;;;;;18.02;6.78;;;;;;;1.45;83.95;103259.88;4975093;28;20069;-77
2022/01/17 07:46:49;;;;;;;16.80;7.20;;;;;;;1.46;84.33;103246.00;4975491;28;20038;-77
2022/01/17 07:49:19;;;;;;;14.35;7.38;;;;;;;1.43;84.07;103249.16;4941944;28;20057;-77
2022/01/17 07:51:50;;;;;;;15.32;6.72;;;;;;;1.40;84.39;103254.25;4974723;28;20070;-80
2022/01/17 07:54:18;;;;;;;16.33;6.72;;;;;;;1.41;84.49;103247.72;4958263;28;20496;-76
2022/01/17 07:56:46;;;;;;;19.17;7.60;;;;;;;1.36;84.14;103236.63;4973221;28;20041;-76
2022/01/17 07:59:13;;;;;;;21.58;6.65;;;;;;;1.36;84.29;103242.94;4956709;28;20059;-76
2022/01/17 08:01:41;;;;;;;16.02;7.72;;;;;;;1.39;84.35;103242.50;4973767;28;20047;-76
2022/01/17 08:04:11;;;;;;;18.33;7.40;;;;;;;1.36;84.58;103237.47;4975676;28;20043;-76
2022/01/17 08:06:39;;;;;;;15.10;7.30;;;;;;;1.34;84.74;103228.69;4986967;28;20046;-76
2022/01/17 08:09:11;;;;;;;14.00;6.55;;;;;;;1.34;84.61;103233.31;4957413;28;20042;-76
2022/01/17 08:11:58;;;;;;;18.50;6.50;;;;;;;1.33;83.97;103226.16;4986935;28;20049;-76
2022/01/17 08:14:25;;;;;;;19.02;7.82;;;;;;;1.32;84.40;103239.00;4977480;28;20854;-76
2022/01/17 08:16:53;;;;;;;22.13;6.88;;;;;;;1.32;84.19;103230.81;4940577;28;20046;-76
2022/01/17 08:19:23;;;;;;;18.55;6.68;;;;;;;1.30;84.62;103227.44;4956304;28;20051;-76
2022/01/17 08:21:52;;;;;;;21.48;7.70;;;;;;;1.30;84.70;103243.81;4975010;28;20057;-76
2022/01/17 08:24:20;;;;;;;13.57;6.32;;;;;;;1.33;84.62;103240.66;4983187;28;20046;-76
2022/01/17 08:26:47;;;;;;;14.82;6.60;;;;;;;1.31;84.62;103239.19;4940369;28;20509;-77
2022/01/17 08:29:14;;;;;;;17.88;7.00;;;;;;;1.31;84.64;103229.13;4974550;28;20046;-77
2022/01/17 08:31:46;;;;;;;16.23;6.90;;;;;;;1.31;84.77;103240.03;4971968;28;20134;-78
2022/01/17 08:34:14;;;;;;;13.87;6.27;;;;;;;1.31;84.50;103228.28;4981441;28;20058;-78
2022/01/17 08:36:41;;;;;;;20.88;6.25;;;;;;;1.33;84.32;103243.38;4977011;28;20289;-77
2022/01/17 08:39:09;;;;;;;17.50;6.95;;;;;;;1.34;84.57;103244.22;4982211;28;22134;-78
2022/01/17 08:41:37;;;;;;;13.70;5.85;;;;;;;1.27;84.82;103251.63;4982034;28;20437;-77
2022/01/17 08:44:04;;;;;;;20.25;6.13;;;;;;;1.22;84.55;103268.66;4984808;28;20038;-77
2022/01/17 08:46:31;;;;;;;19.98;7.75;;;;;;;1.26;85.09;103269.91;4982453;28;20121;-78
2022/01/17 08:48:58;;;;;;;17.02;6.80;;;;;;;1.27;84.62;103259.81;4965292;28;20054;-78
2022/01/17 08:51:24;;;;;;;20.83;7.18;;;;;;;1.23;84.77;103256.69;4983219;28;20053;-77
2022/01/17 08:53:51;;;;;;;16.67;8.05;;;;;;;1.20;84.87;103262.59;4965189;28;20173;-78
2022/01/17 08:56:18;;;;;;;18.50;8.07;;;;;;;1.21;85.04;103250.63;4966552;28;20046;-78
2022/01/17 08:58:45;;;;;;;17.05;7.00;;;;;;;1.21;85.08;103259.66;4982311;28;20148;-77
2022/01/17 09:01:13;;;;;;;27.92;9.77;;;;;;;1.28;84.68;103259.59;4950049;28;20081;-78
2022/01/17 09:03:42;;;;;;;20.95;10.30;;;;;;;1.31;84.83;103261.03;4983482;28;20125;-78
2022/01/17 09:06:08;;;;;;;23.25;11.65;;;;;;;1.30;84.71;103260.19;4983548;28;20092;-77
2022/01/17 09:08:35;;;;;;;27.30;11.07;;;;;;;1.32;85.05;103263.56;4962398;28;20130;-77
2022/01/17 09:11:02;;;;;;;33.42;12.95;;;;;;;1.30;84.94;103271.09;4983668;28;20463;-76
2022/01/17 09:13:30;;;;;;;31.73;13.18;;;;;;;1.35;84.98;103276.72;4984066;28;20034;-76
2022/01/17 09:15:56;;;;;;;29.13;11.95;;;;;;;1.36;84.76;103267.50;4965130;28;20052;-76
2022/01/17 09:18:24;;;;;;;25.65;10.57;;;;;;;1.35;84.86;103271.28;4981549;28;21950;-77
2022/01/17 09:20:52;;;;;;;25.98;10.80;;;;;;;1.38;85.28;103278.22;4983699;28;20473;-77
2022/01/17 09:23:19;;;;;;;24.83;11.05;;;;;;;1.43;85.28;103281.09;4961018;28;20038;-77
2022/01/17 09:25:46;;;;;;;30.05;10.60;;;;;;;1.48;85.24;103281.28;4983913;28;20179;-77
2022/01/17 09:28:13;;;;;;;22.80;9.80;;;;;;;1.51;84.86;103278.09;4962788;28;20053;-78
2022/01/17 09:30:40;;;;;;;26.50;9.68;;;;;;;1.54;84.88;103294.84;4964408;28;20105;-77
2022/01/17 09:33:08;;;;;;;25.83;8.93;;;;;;;1.59;84.97;103289.56;4980455;28;20129;-78
2022/01/17 09:35:35;;;;;;;26.35;9.73;;;;;;;1.63;85.06;103289.94;4971828;28;20038;-79
2022/01/17 09:38:02;;;;;;;30.30;10.52;;;;;;;1.65;85.05;103290.56;4972871;28;20043;-82
2022/01/17 09:40:29;;;;;;;29.10;9.30;;;;;;;1.69;85.17;103287.16;4974134;28;20504;-78
2022/01/17 09:42:58;;;;;;;19.67;8.50;;;;;;;1.74;85.25;103291.94;4972811;28;20038;-78
2022/01/17 09:45:26;;;;;;;20.48;8.80;;;;;;;1.77;85.19;103286.03;4971349;28;20101;-78
2022/01/17 09:47:52;;;;;;;27.55;8.85;;;;;;;1.80;85.35;103283.69;4989454;28;20152;-78
2022/01/17 09:50:31;;;;;;;27.73;10.90;;;;;;;1.84;85.68;103290.38;4974591;28;20042;-78
2022/01/17 09:53:00;;;;;;;20.60;8.80;;;;;;;1.90;85.75;103283.19;4981494;28;20093;-79
2022/01/17 09:55:30;;;;;;;18.42;9.80;;;;;;;1.96;85.60;103286.91;4960979;28;20055;-78
2022/01/17 09:58:08;;;;;;;35.28;10.82;;;;;;;1.99;85.90;103287.28;4974780;28;20165;-78
2022/01/17 10:00:38;;;;;;;22.73;9.88;;;;;;;2.04;85.71;103292.09;4975676;28;20505;-78
2022/01/17 10:03:08;;;;;;;23.88;9.93;;;;;;;2.05;85.84;103294.56;4991782;28;20430;-78
2022/01/17 10:05:36;;;;;;;20.80;9.70;;;;;;;2.12;85.68;103313.66;4977139;28;20046;-79
2022/01/17 10:08:06;;;;;;;30.27;11.63;;;;;;;2.15;85.88;103299.50;4977434;28;20138;-77
2022/01/17 10:10:38;;;;;;;30.38;12.55;;;;;;;2.19;85.78;103304.31;4943432;28;20038;-78
2022/01/17 10:13:14;;;;;;;26.23;11.07;;;;;;;2.24;85.99;103300.88;4979230;28;20049;-78
2022/01/17 10:16:08;;;;;;;25.77;11.27;;;;;;;2.28;85.96;103307.56;4976697;28;20031;-80
2022/01/17 10:18:37;;;;;;;18.33;9.48;;;;;;;2.31;85.75;103305.22;4959099;28;20141;-77
2022/01/17 10:21:14;;;;;;;21.90;7.95;;;;;;;2.34;86.01;103303.91;4976938;28;20070;-77
2022/01/17 10:37:03;;;;;;;13.00;5.43;;;;;;;2.57;85.87;103305.97;4952364;28;20109;-76
2022/01/17 10:39:30;;;;;;;12.43;4.80;;;;;;;2.60;85.69;103314.53;4977012;28;20043;-76
2022/01/17 10:42:19;;;;;;;16.45;4.72;;;;;;;2.64;85.70;103329.44;4978022;28;20105;-76
2022/01/17 10:44:46;;;;;;;15.90;5.50;;;;;;;2.70;85.50;103331.22;4973557;28;20067;-76
2022/01/17 10:47:26;;;;;;;16.40;6.18;;;;;;;2.73;85.85;103328.03;4978415;28;20084;-77
2022/01/17 10:49:59;;;;;;;10.70;4.28;;;;;;;2.78;85.83;103330.09;4976758;28;20038;-76
2022/01/17 10:52:27;;;;;;;9.75;4.28;;;;;;;2.83;85.69;103322.84;4976289;28;20541;-76
2022/01/17 10:55:00;;;;;;;12.90;4.28;;;;;;;2.88;85.60;103311.25;4965827;28;20494;-76
2022/01/17 10:57:32;;;;;;;13.95;4.82;;;;;;;2.91;85.50;103306.13;4958043;28;20537;-77
2022/01/17 10:59:59;;;;;;;11.50;4.07;;;;;;;2.94;86.02;103316.59;4959025;28;20043;-76
2022/01/17 11:02:26;;;;;;;14.13;5.40;;;;;;;3.03;85.89;103319.84;4956147;28;20129;-76
2022/01/17 11:04:53;;;;;;;9.50;3.95;;;;;;;3.05;85.76;103309.50;4957323;28;20050;-75
2022/01/17 11:07:20;;;;;;;8.32;4.07;;;;;;;3.07;85.78;103316.41;4957287;28;20061;-76
2022/01/17 11:09:49;;;;;;;15.32;4.40;;;;;;;3.12;85.54;103299.31;4976255;28;20043;-76
2022/01/17 11:12:18;;;;;;;16.15;7.65;;;;;;;3.19;85.48;103304.69;4976944;28;20126;-76
2022/01/17 11:14:46;;;;;;;16.58;6.10;;;;;;;3.25;85.39;103320.16;4982549;28;20043;-76
2022/01/17 11:17:22;;;;;;;10.27;4.57;;;;;;;3.33;85.03;103307.00;4973486;28;20061;-76
2022/01/17 11:20:08;;;;;;;11.70;4.35;;;;;;;3.41;85.28;103292.13;4955956;28;20074;-76
2022/01/17 11:22:38;;;;;;;19.10;6.55;;;;;;;3.47;85.34;103292.00;4958263;28;20050;-76
2022/01/17 11:25:07;;;;;;;13.20;6.50;;;;;;;3.56;85.48;103301.56;4959434;28;20035;-76
2022/01/17 11:27:34;;;;;;;10.50;3.40;;;;;;;3.62;84.95;103284.19;4974738;28;20051;-76
2022/01/17 11:30:03;;;;;;;12.43;4.88;;;;;;;3.69;84.90;103290.38;4974093;28;20133;-75
2022/01/17 11:32:31;;;;;;;10.38;4.35;;;;;;;3.76;84.88;103279.28;4975545;28;20047;-76
2022/01/17 11:35:00;;;;;;;12.50;5.28;;;;;;;3.83;84.76;103296.44;4955183;28;20938;-76
2022/01/17 11:37:27;;;;;;;25.80;7.53;;;;;;;3.87;84.73;103283.09;4969009;28;20041;-77
2022/01/17 11:39:57;;;;;;;8.95;3.38;;;;;;;3.90;84.97;103291.69;4957611;28;20086;-78
2022/01/17 11:42:34;;;;;;;9.68;4.55;;;;;;;3.92;84.85;103295.00;4974942;28;20555;-78
2022/01/17 11:45:23;;;;;;;9.00;3.83;;;;;;;3.97;84.91;103299.78;4988886;28;20039;-78
2022/01/17 11:47:55;;;;;;;11.95;3.53;;;;;;;4.03;84.71;103307.03;4975452;28;20113;-78
2022/01/17 11:50:28;;;;;;;;;;;;;;;4.09;85.03;103303.34;4958108;28;20097;-77
2022/01/17 11:53:07;;;;;;;15.18;2.90;;;;;;;4.08;84.87;103291.53;4975502;28;19917;-78
2022/01/17 11:55:42;;;;;;;10.63;2.78;;;;;;;4.17;85.24;103292.84;4973194;28;20038;-78
2022/01/17 11:58:36;;;;;;;13.73;4.05;;;;;;;4.29;84.75;103295.56;4955966;28;20070;-78
2022/01/17 12:01:03;;;;;;;14.30;3.67;;;;;;;4.37;84.77;103286.16;4974660;28;20105;-78
2022/01/17 12:03:48;;;;;;;9.45;3.10;;;;;;;4.43;84.84;103290.66;4974602;28;20046;-78
2022/01/17 12:06:29;;;;;;;12.75;3.53;;;;;;;4.44;84.96;103282.19;4977207;28;20066;-79